Time;durP1;ratioP1;P1;durP2;ratioP2;P2;SDS_P1;SDS_P2;PMS_P1;PMS_P2;Temp;Humidity;BMP_temperature;BMP_pressure;BME280_temperature;BME280_humidity;BME280_pressure;Samples;Min_cycle;Max_cycle;Signal;HPM_P1;HPM_P2
2021/09/30 00:01:26;;;;;;;9.60;1.70;;;10.00;99.90;;;;;;5048026;28;20044;-74
2021/09/30 00:03:52;;;;;;;9.45;1.60;;;10.00;99.90;;;;;;5049854;28;20548;-75
2021/09/30 00:06:19;;;;;;;8.73;2.20;;;10.00;99.90;;;;;;5048614;28;20040;-75
2021/09/30 00:08:46;;;;;;;10.05;1.60;;;10.00;99.90;;;;;;5032996;28;20055;-74
2021/09/30 00:11:14;;;;;;;7.65;1.50;;;9.90;99.90;;;;;;5032051;28;20495;-74
2021/09/30 00:13:45;;;;;;;9.35;1.50;;;9.90;99.90;;;;;;5049772;28;20056;-75
2021/09/30 00:51:53;;;;;;;11.65;1.58;;;9.60;99.90;;;;;;5016720;28;20072;-74
2021/09/30 01:20:26;;;;;;;9.70;1.75;;;9.20;99.90;;;;;;5048697;28;20055;-73
2021/09/30 02:21:57;;;;;;;6.43;1.27;;;9.30;99.90;;;;;;5051190;28;20040;-74
2021/09/30 03:00:13;;;;;;;5.60;1.20;;;9.20;99.90;;;;;;5046784;28;20966;-75
2021/09/30 03:02:40;;;;;;;7.68;1.20;;;9.30;99.90;;;;;;5047957;28;20517;-74
2021/09/30 03:05:06;;;;;;;6.47;1.23;;;9.30;99.90;;;;;;5050051;28;20114;-75
2021/09/30 03:07:33;;;;;;;6.68;1.20;;;9.30;99.90;;;;;;5029729;28;20506;-74
2021/09/30 03:10:02;;;;;;;7.25;1.30;;;9.30;99.90;;;;;;5050121;28;20523;-75
2021/09/30 03:12:30;;;;;;;8.18;1.30;;;9.20;99.90;;;;;;5049457;28;20041;-74
2021/09/30 03:23:22;;;;;;;6.00;1.50;;;9.20;99.90;;;;;;5048414;28;20047;-74
2021/09/30 03:25:49;;;;;;;8.73;1.70;;;9.30;99.90;;;;;;5028631;28;20048;-75
2021/09/30 03:28:22;;;;;;;8.32;1.80;;;9.30;99.90;;;;;;5048928;28;20491;-74
2021/09/30 03:30:52;;;;;;;7.70;1.73;;;9.20;99.90;;;;;;5047401;28;20088;-74
2021/09/30 03:33:19;;;;;;;6.97;1.70;;;9.30;99.90;;;;;;5048681;28;20533;-75
2021/09/30 03:35:45;;;;;;;8.90;2.00;;;9.20;99.90;;;;;;5049471;28;20044;-75
2021/09/30 03:38:11;;;;;;;6.97;1.60;;;9.20;99.90;;;;;;5032684;28;20178;-75
2021/09/30 03:40:38;;;;;;;6.63;1.88;;;9.20;99.90;;;;;;5033141;28;20049;-75
2021/09/30 03:43:05;;;;;;;10.35;2.25;;;9.20;99.90;;;;;;5050654;28;20247;-75
2021/09/30 03:45:34;;;;;;;8.05;1.65;;;9.30;99.90;;;;;;5033438;28;20040;-75
2021/09/30 03:48:00;;;;;;;8.10;1.55;;;9.30;99.90;;;;;;5031378;28;20487;-74
2021/09/30 03:50:30;;;;;;;7.70;1.77;;;9.20;99.90;;;;;;5032060;28;20052;-75
2021/09/30 04:00:53;;;;;;;8.45;2.60;;;9.20;99.90;;;;;;5046575;28;20052;-75
2021/09/30 04:03:19;;;;;;;7.28;2.15;;;9.20;99.90;;;;;;5048127;28;20036;-75
2021/09/30 04:05:45;;;;;;;8.25;2.05;;;9.20;99.90;;;;;;5032704;28;20861;-75
2021/09/30 04:08:11;;;;;;;7.43;2.30;;;9.10;99.90;;;;;;5046546;28;20040;-74
2021/09/30 04:10:36;;;;;;;7.50;2.08;;;9.10;99.90;;;;;;5048966;28;20131;-75
2021/09/30 04:13:02;;;;;;;8.75;2.90;;;9.10;99.90;;;;;;5049114;28;20045;-74
2021/09/30 04:15:28;;;;;;;11.55;2.65;;;9.10;99.90;;;;;;5047504;28;20036;-75
2021/09/30 04:17:54;;;;;;;9.02;2.85;;;9.10;99.90;;;;;;5048750;28;20048;-75
2021/09/30 04:20:20;;;;;;;8.05;2.03;;;9.10;99.90;;;;;;5032711;28;20044;-74
2021/09/30 04:22:45;;;;;;;7.75;2.22;;;9.10;99.90;;;;;;5036306;28;20048;-75
2021/09/30 04:25:12;;;;;;;7.93;2.10;;;9.10;99.90;;;;;;5036135;28;20098;-75
2021/09/30 04:27:38;;;;;;;8.00;2.53;;;9.10;99.90;;;;;;5035402;28;20045;-75
2021/09/30 04:30:08;;;;;;;10.60;3.88;;;9.10;99.90;;;;;;5052830;28;20044;-75
2021/09/30 04:32:34;;;;;;;12.82;4.68;;;9.10;99.90;;;;;;5051909;28;20072;-76
2021/09/30 04:34:59;;;;;;;19.88;7.30;;;9.10;99.90;;;;;;5036135;28;20142;-75
2021/09/30 04:37:25;;;;;;;19.67;7.68;;;9.10;99.90;;;;;;5052682;28;20056;-74
2021/09/30 04:39:52;;;;;;;18.25;8.48;;;9.10;99.90;;;;;;5051012;28;20056;-75
2021/09/30 04:42:18;;;;;;;26.15;11.70;;;9.10;99.90;;;;;;5035864;28;20506;-75
2021/09/30 04:44:44;;;;;;;23.90;10.60;;;9.20;99.90;;;;;;5052773;28;20057;-75
2021/09/30 04:47:12;;;;;;;27.35;11.60;;;9.20;99.90;;;;;;5052589;28;20048;-76
2021/09/30 04:49:38;;;;;;;27.15;13.18;;;9.20;99.90;;;;;;5033960;28;20513;-75
2021/09/30 04:52:05;;;;;;;26.75;12.32;;;9.20;99.90;;;;;;5034565;28;20129;-75
2021/09/30 04:54:34;;;;;;;29.77;12.75;;;9.20;99.90;;;;;;5051804;28;20525;-75
2021/09/30 04:57:00;;;;;;;30.00;12.50;;;9.20;99.90;;;;;;5053201;28;20131;-75
2021/09/30 04:59:25;;;;;;;29.63;12.85;;;9.10;99.90;;;;;;5049435;28;20132;-75
2021/09/30 05:01:51;;;;;;;33.15;13.30;;;9.10;99.90;;;;;;5050455;28;20052;-75
2021/09/30 05:04:17;;;;;;;25.85;13.15;;;9.10;99.90;;;;;;5052688;28;20051;-75
2021/09/30 05:06:43;;;;;;;30.52;14.05;;;9.10;99.90;;;;;;5034420;28;20453;-76
2021/09/30 05:09:09;;;;;;;33.05;16.40;;;9.10;99.90;;;;;;5035702;28;20044;-75
2021/09/30 05:11:36;;;;;;;33.35;17.33;;;9.00;99.90;;;;;;5052187;28;20049;-76
2021/09/30 05:14:03;;;;;;;37.28;19.80;;;9.00;99.90;;;;;;5050891;28;20052;-75
2021/09/30 05:16:29;;;;;;;43.58;22.05;;;9.00;99.90;;;;;;5051555;28;20047;-75
2021/09/30 05:18:56;;;;;;;45.28;23.85;;;9.10;99.90;;;;;;5080784;28;20079;-75
2021/09/30 05:21:23;;;;;;;46.35;25.98;;;9.10;99.90;;;;;;5031517;28;20483;-74
2021/09/30 05:23:51;;;;;;;46.28;25.23;;;9.10;99.90;;;;;;5057601;28;20186;-75
2021/09/30 05:26:17;;;;;;;47.22;25.40;;;9.10;99.90;;;;;;5030553;28;20040;-75
2021/09/30 05:28:43;;;;;;;50.03;26.05;;;9.10;99.90;;;;;;5053080;28;20893;-75
2021/09/30 05:31:08;;;;;;;47.60;25.83;;;9.10;99.90;;;;;;5051705;28;20044;-75
2021/09/30 05:33:34;;;;;;;42.95;25.20;;;9.10;99.90;;;;;;5051787;28;20534;-74
2021/09/30 05:36:00;;;;;;;49.20;26.17;;;9.10;99.90;;;;;;5034893;28;20052;-75
2021/09/30 05:38:26;;;;;;;53.42;26.85;;;9.00;99.90;;;;;;5035003;28;20398;-76
2021/09/30 05:40:54;;;;;;;54.97;28.55;;;9.00;99.90;;;;;;5033959;28;20037;-75
2021/09/30 05:43:24;;;;;;;50.05;27.13;;;8.90;99.90;;;;;;5047946;28;20044;-76
2021/09/30 05:45:55;;;;;;;58.25;29.98;;;9.00;99.90;;;;;;5036116;28;20109;-75
2021/09/30 05:48:21;;;;;;;49.63;28.90;;;8.90;99.90;;;;;;5053290;28;20048;-75
2021/09/30 05:50:47;;;;;;;56.85;29.65;;;8.90;99.90;;;;;;5050886;28;20056;-72
2021/09/30 05:53:14;;;;;;;53.20;30.50;;;8.90;99.90;;;;;;5053050;28;20040;-74
2021/09/30 05:55:39;;;;;;;59.28;32.10;;;8.90;99.90;;;;;;5049292;28;20036;-75
2021/09/30 05:58:05;;;;;;;60.25;32.22;;;8.90;99.90;;;;;;5010807;28;20052;-75
2021/09/30 06:16:18;;;;;;;45.22;22.88;;;9.20;99.90;;;;;;5049256;28;20051;-74
2021/09/30 06:18:44;;;;;;;39.08;22.65;;;9.20;99.90;;;;;;5030581;28;20104;-73
2021/09/30 06:21:10;;;;;;;38.63;21.65;;;9.20;99.90;;;;;;5032279;28;20115;-74
2021/09/30 06:23:36;;;;;;;45.30;22.27;;;9.30;99.90;;;;;;5050026;28;20037;-73
2021/09/30 06:26:06;;;;;;;39.55;19.95;;;9.40;99.90;;;;;;5050383;28;20051;-73
2021/09/30 06:28:32;;;;;;;36.60;20.50;;;9.40;99.90;;;;;;5034214;28;20047;-74
2021/09/30 06:30:58;;;;;;;39.60;19.13;;;9.40;99.90;;;;;;5049753;28;20033;-74
2021/09/30 06:33:24;;;;;;;38.17;19.52;;;9.40;99.90;;;;;;5049639;28;20606;-73
2021/09/30 06:35:53;;;;;;;41.17;20.05;;;9.40;99.90;;;;;;5034375;28;20044;-73
2021/09/30 06:38:22;;;;;;;38.95;17.83;;;9.40;99.90;;;;;;5049813;28;20032;-73
2021/09/30 06:40:48;;;;;;;39.30;17.55;;;9.40;99.90;;;;;;5030074;28;20048;-74
2021/09/30 06:43:14;;;;;;;38.53;17.60;;;9.50;99.90;;;;;;5029123;28;20064;-73
2021/09/30 06:45:40;;;;;;;38.60;17.02;;;9.60;99.90;;;;;;5031145;28;20072;-73
2021/09/30 06:48:06;;;;;;;41.40;17.15;;;9.60;99.90;;;;;;5013037;28;20049;-74
2021/09/30 06:50:32;;;;;;;41.30;17.00;;;9.70;99.90;;;;;;5030478;28;20041;-74
2021/09/30 06:53:01;;;;;;;43.80;18.10;;;9.70;99.90;;;;;;5013815;28;20045;-74
2021/09/30 06:55:29;;;;;;;40.72;17.00;;;9.80;99.90;;;;;;5029840;28;20443;-74
2021/09/30 06:57:55;;;;;;;43.13;17.10;;;9.90;99.90;;;;;;5030392;28;20053;-74
2021/09/30 07:00:21;;;;;;;37.63;16.63;;;9.90;99.90;;;;;;5030116;28;20106;-74
2021/09/30 07:02:52;;;;;;;40.67;18.02;;;9.90;99.90;;;;;;5030716;28;20602;-74
2021/09/30 07:05:18;;;;;;;45.05;19.10;;;10.00;99.90;;;;;;5033618;28;20041;-74
2021/09/30 07:07:44;;;;;;;45.35;17.60;;;10.10;99.90;;;;;;5030895;28;20049;-73
2021/09/30 07:10:10;;;;;;;46.28;20.20;;;10.10;99.90;;;;;;5047019;28;20045;-75
2021/09/30 07:12:38;;;;;;;43.80;18.88;;;10.20;99.90;;;;;;5012911;28;20041;-74
2021/09/30 07:15:04;;;;;;;47.25;20.90;;;10.30;99.90;;;;;;5047135;28;20053;-74
2021/09/30 07:17:30;;;;;;;48.92;21.75;;;10.40;99.90;;;;;;5047325;28;20036;-74
2021/09/30 07:19:57;;;;;;;53.90;22.58;;;10.50;99.90;;;;;;5030699;28;20061;-72
2021/09/30 07:22:24;;;;;;;49.55;22.85;;;10.60;99.90;;;;;;5029627;28;20037;-74
2021/09/30 07:24:50;;;;;;;45.05;22.52;;;10.60;99.90;;;;;;5047500;28;20076;-73
2021/09/30 07:27:16;;;;;;;48.92;23.27;;;10.60;99.90;;;;;;5024973;28;20496;-74
2021/09/30 07:29:42;;;;;;;51.80;23.90;;;10.70;99.90;;;;;;5029435;28;20041;-75
2021/09/30 07:32:09;;;;;;;45.90;23.40;;;10.80;99.90;;;;;;5046653;28;20080;-74
2021/09/30 07:34:34;;;;;;;55.22;23.83;;;10.90;99.90;;;;;;5029816;28;20395;-74
2021/09/30 07:37:04;;;;;;;48.60;22.50;;;11.10;99.90;;;;;;5045775;28;20041;-74
2021/09/30 07:39:30;;;;;;;55.97;24.03;;;11.10;99.90;;;;;;5045864;28;20037;-74
2021/09/30 07:41:58;;;;;;;39.45;20.98;;;11.20;99.90;;;;;;5012068;28;20057;-74
2021/09/30 07:44:25;;;;;;;41.70;21.27;;;11.40;99.90;;;;;;5029746;28;20083;-74
2021/09/30 07:46:55;;;;;;;40.20;18.48;;;11.50;99.90;;;;;;5030052;28;20049;-75
2021/09/30 07:49:21;;;;;;;35.63;16.02;;;11.60;99.90;;;;;;5029269;28;20044;-74
2021/09/30 07:51:47;;;;;;;36.03;16.05;;;11.80;99.90;;;;;;5029932;28;20124;-74
2021/09/30 07:54:14;;;;;;;27.83;12.07;;;12.00;99.90;;;;;;5044786;28;20483;-74
2021/09/30 07:56:40;;;;;;;22.95;9.25;;;12.20;99.90;;;;;;5059642;28;20430;-74
2021/09/30 07:59:05;;;;;;;14.00;5.63;;;12.40;99.90;;;;;;5045298;28;20041;-75
2021/09/30 08:01:34;;;;;;;16.23;3.55;;;12.60;99.90;;;;;;5052174;28;20483;-73
2021/09/30 08:04:02;;;;;;;9.90;3.30;;;12.70;99.90;;;;;;5046039;28;20048;-74
2021/09/30 08:06:28;;;;;;;7.60;2.58;;;12.80;99.90;;;;;;5029331;28;20136;-74
2021/09/30 08:08:58;;;;;;;9.38;1.90;;;13.00;99.90;;;;;;5044170;28;20128;-73
2021/09/30 08:11:26;;;;;;;12.00;2.33;;;13.00;99.90;;;;;;5045357;28;20064;-74
2021/09/30 08:13:53;;;;;;;6.60;1.50;;;12.90;99.90;;;;;;5046307;28;20099;-73
2021/09/30 08:16:21;;;;;;;5.97;1.23;;;12.90;99.90;;;;;;5028745;28;20052;-73
2021/09/30 08:18:48;;;;;;;8.52;1.60;;;12.90;99.90;;;;;;5029552;28;20041;-73
2021/09/30 08:21:14;;;;;;;8.15;1.52;;;13.10;99.90;;;;;;5044829;28;20071;-73
2021/09/30 08:23:41;;;;;;;6.03;1.08;;;13.30;99.90;;;;;;5029311;28;20036;-73
2021/09/30 08:26:07;;;;;;;6.90;1.17;;;13.50;99.90;;;;;;5044955;28;20084;-74
2021/09/30 08:28:35;;;;;;;6.63;1.23;;;13.60;99.90;;;;;;5045526;28;20538;-73
2021/09/30 08:31:05;;;;;;;5.97;1.45;;;13.80;99.90;;;;;;5027749;28;20510;-73
2021/09/30 08:33:32;;;;;;;7.33;1.50;;;13.90;99.90;;;;;;5029198;28;20087;-73
2021/09/30 08:36:04;;;;;;;5.93;1.40;;;14.00;99.90;;;;;;5046046;28;20287;-74
2021/09/30 08:38:30;;;;;;;6.70;1.48;;;14.00;99.90;;;;;;5044193;28;20047;-72
2021/09/30 08:40:56;;;;;;;10.40;1.65;;;14.10;99.90;;;;;;5045393;28;20049;-73
2021/09/30 08:43:22;;;;;;;7.53;1.50;;;14.20;99.90;;;;;;5045361;28;20073;-73
2021/09/30 08:45:48;;;;;;;8.70;1.60;;;14.40;99.90;;;;;;5052209;28;20037;-72
2021/09/30 08:48:15;;;;;;;10.20;1.52;;;14.40;99.90;;;;;;5028906;28;20542;-73
2021/09/30 08:50:41;;;;;;;8.85;1.52;;;14.50;99.90;;;;;;5045628;28;20045;-73
2021/09/30 08:53:12;;;;;;;9.95;1.08;;;14.50;99.90;;;;;;5029078;28;20071;-73
2021/09/30 08:55:38;;;;;;;6.45;1.35;;;14.50;99.90;;;;;;5045450;28;20119;-73
2021/09/30 08:58:06;;;;;;;7.68;1.23;;;14.60;99.90;;;;;;5056096;28;20049;-73
2021/09/30 09:00:34;;;;;;;7.53;1.65;;;14.60;99.90;;;;;;5028352;28;20041;-73
2021/09/30 09:03:00;;;;;;;4.53;1.25;;;14.60;99.90;;;;;;5029897;28;20056;-73
2021/09/30 09:05:27;;;;;;;9.45;1.40;;;14.60;99.90;;;;;;5045443;28;20675;-73
2021/09/30 09:08:01;;;;;;;7.18;1.38;;;14.50;99.90;;;;;;5049314;28;20037;-73
2021/09/30 09:10:30;;;;;;;9.80;1.65;;;14.60;99.90;;;;;;5072136;28;20052;-73
2021/09/30 09:13:22;;;;;;;6.05;1.23;;;14.60;99.90;;;;;;5049025;28;20045;-73
2021/09/30 09:15:59;;;;;;;8.15;1.25;;;14.70;99.90;;;;;;5023846;28;20160;-73
2021/09/30 09:18:32;;;;;;;8.85;1.80;;;14.70;99.90;;;;;;5048617;28;20049;-73
2021/09/30 09:21:06;;;;;;;11.30;2.10;;;14.80;99.90;;;;;;5032785;28;20557;-73
2021/09/30 09:23:38;;;;;;;13.60;2.70;;;14.80;99.90;;;;;;5048053;28;20156;-73
2021/09/30 09:26:14;;;;;;;12.98;3.20;;;14.90;99.90;;;;;;5048330;28;20566;-74
2021/09/30 09:29:04;;;;;;;11.20;3.58;;;14.80;99.90;;;;;;5032738;28;20052;-73
2021/09/30 09:31:41;;;;;;;12.73;4.03;;;14.90;99.90;;;;;;5030865;28;20041;-72
2021/09/30 09:34:29;;;;;;;14.63;3.55;;;15.00;99.90;;;;;;5048542;28;20546;-73
2021/09/30 09:37:14;;;;;;;13.68;4.03;;;15.00;99.90;;;;;;5067819;28;20101;-74
2021/09/30 09:39:40;;;;;;;11.93;3.03;;;15.00;99.90;;;;;;5049077;28;20052;-73
2021/09/30 09:42:24;;;;;;;17.67;4.40;;;14.90;99.90;;;;;;5034697;28;20407;-72
2021/09/30 09:45:06;;;;;;;12.68;3.80;;;14.70;99.90;;;;;;5033050;28;20044;-73
2021/09/30 09:47:35;;;;;;;12.95;2.97;;;14.60;99.90;;;;;;5034607;28;20040;-72
2021/09/30 09:50:20;;;;;;;15.25;3.40;;;14.60;99.90;;;;;;5032684;28;20052;-72
2021/09/30 09:52:48;;;;;;;12.93;3.50;;;14.50;99.90;;;;;;5034455;28;20068;-73
2021/09/30 09:55:15;;;;;;;12.60;2.90;;;14.60;99.90;;;;;;5035172;28;20041;-74
2021/09/30 09:57:41;;;;;;;11.70;2.80;;;14.60;99.90;;;;;;5033472;28;20049;-72
2021/09/30 10:00:13;;;;;;;9.80;1.98;;;14.70;99.90;;;;;;5051171;28;20859;-73
2021/09/30 10:02:39;;;;;;;9.73;1.98;;;14.80;99.90;;;;;;5051393;28;20031;-72
2021/09/30 10:05:05;;;;;;;10.93;2.13;;;14.90;99.90;;;;;;5049847;28;20044;-73
2021/09/30 10:07:32;;;;;;;5.45;1.48;;;15.00;99.70;;;;;;5051018;28;20040;-73
2021/09/30 10:09:58;;;;;;;7.65;1.60;;;15.10;99.90;;;;;;5034779;28;20045;-72
2021/09/30 10:12:24;;;;;;;6.68;1.60;;;15.20;99.30;;;;;;5051044;28;20040;-73
2021/09/30 10:14:51;;;;;;;8.73;1.40;;;15.20;99.50;;;;;;5034288;28;20075;-73
2021/09/30 10:17:17;;;;;;;11.30;1.65;;;15.30;99.90;;;;;;5034096;28;20056;-72
2021/09/30 10:19:44;;;;;;;7.68;1.50;;;15.40;99.30;;;;;;5032261;28;20052;-73
2021/09/30 10:22:10;;;;;;;5.80;1.13;;;15.50;97.80;;;;;;5048341;28;20037;-73
2021/09/30 10:24:36;;;;;;;5.25;1.20;;;15.50;97.80;;;;;;5050817;28;20071;-73
2021/09/30 10:27:02;;;;;;;5.05;1.27;;;15.50;97.70;;;;;;5033365;28;20471;-73
2021/09/30 10:29:40;;;;;;;7.45;1.27;;;15.50;97.80;;;;;;5047603;28;20447;-74
2021/09/30 10:32:07;;;;;;;10.52;1.75;;;15.50;97.40;;;;;;5055753;28;20048;-73
2021/09/30 10:34:35;;;;;;;5.13;1.27;;;15.50;97.30;;;;;;5034092;28;20131;-73
2021/09/30 10:37:19;;;;;;;9.70;1.27;;;15.50;95.70;;;;;;5050202;28;20499;-73
2021/09/30 10:40:05;;;;;;;6.95;1.10;;;15.50;96.40;;;;;;5051102;28;20136;-74
2021/09/30 10:42:55;;;;;;;5.82;1.30;;;15.40;97.20;;;;;;5033098;28;20045;-73
2021/09/30 10:45:35;;;;;;;5.88;1.23;;;15.50;97.30;;;;;;5069928;28;20052;-74
2021/09/30 10:48:07;;;;;;;;;;;15.40;95.90;;;;;;5049570;28;20575;-73
2021/09/30 10:50:47;;;;;;;6.72;1.02;;;15.30;96.40;;;;;;5056458;28;19921;-73
2021/09/30 10:53:13;;;;;;;6.55;1.20;;;15.20;95.50;;;;;;5033460;28;20502;-73
2021/09/30 10:55:39;;;;;;;6.93;1.23;;;15.10;96.30;;;;;;5033104;28;20058;-74
2021/09/30 10:58:26;;;;;;;8.18;1.30;;;15.00;96.20;;;;;;5038545;28;20048;-74
2021/09/30 11:00:58;;;;;;;6.63;1.23;;;14.90;96.10;;;;;;5051165;28;20052;-73
2021/09/30 11:03:25;;;;;;;4.95;1.17;;;14.80;96.40;;;;;;5051116;28;20045;-74
2021/09/30 11:06:06;;;;;;;7.57;2.42;;;14.80;96.50;;;;;;5031322;28;20080;-73
2021/09/30 11:08:35;;;;;;;11.90;2.83;;;14.80;96.70;;;;;;5033119;28;20075;-74
2021/09/30 11:11:04;;;;;;;11.10;2.65;;;14.90;96.90;;;;;;5050816;28;20135;-73
2021/09/30 11:13:32;;;;;;;14.60;3.38;;;14.90;97.00;;;;;;5050671;28;20036;-73
2021/09/30 11:16:32;;;;;;;9.32;2.80;;;14.80;97.10;;;;;;5032336;28;20049;-74
2021/09/30 11:19:00;;;;;;;12.57;3.72;;;14.80;97.10;;;;;;5030040;28;20052;-73
2021/09/30 11:21:31;;;;;;;8.32;3.13;;;14.80;96.70;;;;;;5031837;28;20119;-72
2021/09/30 11:24:10;;;;;;;10.70;3.30;;;14.70;96.80;;;;;;5033879;28;20048;-73
2021/09/30 11:26:55;;;;;;;16.42;2.85;;;14.70;97.10;;;;;;5048261;28;20052;-74
2021/09/30 11:29:29;;;;;;;12.75;3.45;;;14.70;97.00;;;;;;5048774;28;20044;-73
2021/09/30 11:31:58;;;;;;;6.80;1.77;;;14.70;97.20;;;;;;5033618;28;20601;-73
2021/09/30 11:34:32;;;;;;;5.63;1.23;;;14.70;96.90;;;;;;5049626;28;20040;-73
2021/09/30 11:37:11;;;;;;;10.13;2.25;;;14.80;97.40;;;;;;5049633;28;20052;-73
2021/09/30 11:39:37;;;;;;;9.52;2.10;;;14.90;96.90;;;;;;5049334;28;20063;-73
2021/09/30 11:42:03;;;;;;;8.13;1.70;;;15.00;97.00;;;;;;5049335;28;20056;-74
2021/09/30 11:44:29;;;;;;;8.82;1.85;;;15.10;96.80;;;;;;5049500;28;20111;-72
2021/09/30 11:46:57;;;;;;;6.15;1.63;;;15.20;96.20;;;;;;5049852;28;20635;-73
2021/09/30 11:49:23;;;;;;;6.57;1.17;;;15.40;95.20;;;;;;5049133;28;20036;-73
2021/09/30 11:51:57;;;;;;;7.05;1.67;;;15.50;95.50;;;;;;5032471;28;20044;-72
2021/09/30 11:54:35;;;;;;;8.18;1.25;;;15.70;95.40;;;;;;5049795;28;20048;-73
2021/09/30 11:57:02;;;;;;;9.10;1.55;;;15.80;93.30;;;;;;5030049;28;20575;-73
2021/09/30 11:59:30;;;;;;;8.90;1.60;;;15.70;93.10;;;;;;5032465;28;20041;-73
2021/09/30 12:02:02;;;;;;;9.07;1.17;;;15.60;93.70;;;;;;5049770;28;20036;-73
2021/09/30 12:04:43;;;;;;;9.40;1.70;;;15.50;94.50;;;;;;5063127;28;20547;-72
2021/09/30 12:07:27;;;;;;;9.68;1.73;;;15.40;93.70;;;;;;5082235;28;20580;-73
2021/09/30 12:09:59;;;;;;;7.72;1.17;;;15.40;92.80;;;;;;5013488;28;20048;-73
2021/09/30 12:12:33;;;;;;;5.20;1.15;;;15.30;93.00;;;;;;5032124;28;20503;-73
2021/09/30 12:14:59;;;;;;;10.20;1.40;;;15.40;93.20;;;;;;5049656;28;20111;-73
2021/09/30 12:17:33;;;;;;;7.78;1.30;;;15.40;93.40;;;;;;5032670;28;20044;-73
2021/09/30 12:20:00;;;;;;;5.28;1.38;;;15.50;93.50;;;;;;5033269;28;20550;-73
2021/09/30 12:22:55;;;;;;;6.70;1.50;;;15.50;93.30;;;;;;5048432;28;20572;-73
2021/09/30 12:25:26;;;;;;;8.60;1.30;;;15.50;93.00;;;;;;5032803;28;20691;-73
2021/09/30 12:27:55;;;;;;;6.38;1.77;;;15.60;93.40;;;;;;5030266;28;20383;-73
2021/09/30 12:30:24;;;;;;;5.97;1.25;;;15.60;93.10;;;;;;5048293;28;20155;-72
2021/09/30 12:32:52;;;;;;;6.57;1.42;;;15.60;92.60;;;;;;5048918;28;20059;-73
2021/09/30 12:35:30;;;;;;;9.40;1.70;;;15.50;93.00;;;;;;5048632;28;20501;-72
2021/09/30 12:37:58;;;;;;;7.00;1.30;;;15.40;93.50;;;;;;5048773;28;20048;-73
2021/09/30 12:40:26;;;;;;;8.60;1.92;;;15.30;94.20;;;;;;5045963;28;20041;-72
2021/09/30 12:43:05;;;;;;;6.35;1.58;;;15.30;94.40;;;;;;5031983;28;20045;-72
2021/09/30 12:45:43;;;;;;;7.18;1.73;;;15.30;94.20;;;;;;5050304;28;20499;-74
2021/09/30 12:48:11;;;;;;;6.68;2.22;;;15.30;94.70;;;;;;5050260;28;20045;-73
2021/09/30 12:50:42;;;;;;;6.93;1.88;;;15.30;94.80;;;;;;5033173;28;20426;-74
2021/09/30 12:53:09;;;;;;;10.30;2.53;;;15.20;94.60;;;;;;5033325;28;20059;-73
2021/09/30 12:55:35;;;;;;;7.05;1.60;;;15.10;94.90;;;;;;5015929;28;20121;-73
2021/09/30 12:58:02;;;;;;;7.43;1.70;;;15.00;95.40;;;;;;5030821;28;20135;-73
2021/09/30 13:00:37;;;;;;;9.48;1.65;;;15.00;95.10;;;;;;5049269;28;20499;-74
2021/09/30 13:03:14;;;;;;;7.22;1.60;;;14.90;95.50;;;;;;5049612;28;20045;-73
2021/09/30 13:05:52;;;;;;;9.75;1.33;;;14.90;95.30;;;;;;5030647;28;20045;-73
2021/09/30 13:08:42;;;;;;;10.15;1.50;;;14.90;95.40;;;;;;5049571;28;20413;-73
2021/09/30 13:11:29;;;;;;;7.47;1.60;;;14.80;95.30;;;;;;5032636;28;20033;-73
2021/09/30 13:14:21;;;;;;;7.75;2.03;;;14.80;95.30;;;;;;5047812;28;20053;-73
2021/09/30 13:16:53;;;;;;;4.65;1.38;;;14.70;95.80;;;;;;5032543;28;20033;-73
2021/09/30 13:19:38;;;;;;;7.15;1.55;;;14.80;95.40;;;;;;5049369;28;20076;-73
2021/09/30 13:22:05;;;;;;;9.70;1.60;;;14.70;95.30;;;;;;5048309;28;20045;-72
2021/09/30 13:24:37;;;;;;;5.68;1.52;;;14.70;94.70;;;;;;5032024;28;20123;-75
2021/09/30 13:27:05;;;;;;;6.70;1.15;;;14.70;94.70;;;;;;5048366;28;20476;-75
2021/09/30 13:29:32;;;;;;;3.85;0.90;;;14.70;94.20;;;;;;5048077;28;20049;-75
2021/09/30 13:31:58;;;;;;;9.13;1.55;;;14.60;94.00;;;;;;5047215;28;20399;-75
2021/09/30 13:34:24;;;;;;;6.43;1.52;;;14.60;93.90;;;;;;5029755;28;20033;-75
2021/09/30 13:36:50;;;;;;;6.43;1.33;;;14.60;93.80;;;;;;5014140;28;20049;-75
2021/09/30 13:39:16;;;;;;;5.00;1.08;;;14.50;93.60;;;;;;5032364;28;20053;-75
2021/09/30 13:41:43;;;;;;;6.95;1.20;;;14.40;93.70;;;;;;5044970;28;20127;-74
2021/09/30 13:44:08;;;;;;;5.45;1.30;;;14.30;94.20;;;;;;5047923;28;20136;-75
2021/09/30 13:46:35;;;;;;;5.60;1.33;;;14.20;94.90;;;;;;5047535;28;20120;-76
2021/09/30 13:49:02;;;;;;;6.03;1.23;;;14.10;95.30;;;;;;5047515;28;20049;-75
2021/09/30 13:51:30;;;;;;;7.03;1.25;;;14.10;95.60;;;;;;5036641;28;20041;-75
2021/09/30 13:53:56;;;;;;;8.02;1.48;;;13.90;95.80;;;;;;5046977;28;20151;-72
2021/09/30 13:56:23;;;;;;;6.20;1.30;;;13.90;96.10;;;;;;5046327;28;20576;-72
2021/09/30 13:58:49;;;;;;;6.25;1.10;;;13.80;96.40;;;;;;5020399;28;20043;-73
2021/09/30 14:01:16;;;;;;;7.93;1.27;;;13.70;96.50;;;;;;5024735;28;20120;-72
2021/09/30 14:03:41;;;;;;;6.53;1.45;;;13.70;96.80;;;;;;5047450;28;20084;-72
2021/09/30 14:06:07;;;;;;;6.63;1.48;;;13.70;97.10;;;;;;5048730;28;20076;-73
2021/09/30 14:08:34;;;;;;;6.18;1.90;;;13.60;97.30;;;;;;5046604;28;20045;-73
2021/09/30 14:11:00;;;;;;;5.30;1.50;;;13.60;97.70;;;;;;5045734;28;20124;-73
2021/09/30 14:13:26;;;;;;;8.23;1.40;;;13.60;97.90;;;;;;5031322;28;20036;-72
2021/09/30 14:15:52;;;;;;;5.25;1.38;;;13.50;97.90;;;;;;5047754;28;20106;-72
2021/09/30 14:18:18;;;;;;;6.78;1.45;;;13.50;98.20;;;;;;5031217;28;20049;-73
2021/09/30 14:20:44;;;;;;;7.55;1.50;;;13.50;98.40;;;;;;5045452;28;20041;-73
2021/09/30 14:23:11;;;;;;;8.75;2.03;;;13.40;98.60;;;;;;5031756;28;20167;-72
2021/09/30 14:25:37;;;;;;;8.15;1.75;;;13.50;98.90;;;;;;5047082;28;20087;-73
2021/09/30 14:28:04;;;;;;;7.15;1.50;;;13.40;98.90;;;;;;5029945;28;20080;-73
2021/09/30 14:30:30;;;;;;;5.07;1.70;;;13.40;99.10;;;;;;5031190;28;20053;-72
2021/09/30 14:32:56;;;;;;;9.65;1.65;;;13.40;99.10;;;;;;5047928;28;20049;-73
2021/09/30 14:35:21;;;;;;;7.60;1.60;;;13.40;99.30;;;;;;5031075;28;20128;-73
2021/09/30 14:37:48;;;;;;;7.53;1.55;;;13.40;99.80;;;;;;5047437;28;20047;-74
2021/09/30 14:40:14;;;;;;;6.30;2.10;;;13.40;99.90;;;;;;5030823;28;20523;-73
2021/09/30 14:42:41;;;;;;;12.88;1.70;;;13.50;99.90;;;;;;5045712;28;20094;-73
2021/09/30 14:45:07;;;;;;;8.18;1.88;;;13.50;99.70;;;;;;5047178;28;20639;-75
2021/09/30 14:47:33;;;;;;;9.35;1.83;;;13.60;99.70;;;;;;5028900;28;20049;-72
2021/09/30 14:50:05;;;;;;;9.38;2.00;;;13.60;99.10;;;;;;5047714;28;20150;-73
2021/09/30 14:52:34;;;;;;;11.82;2.00;;;13.60;98.90;;;;;;5043429;28;20049;-71
2021/09/30 14:54:59;;;;;;;7.30;2.08;;;13.70;99.00;;;;;;5030693;28;20139;-72
2021/09/30 14:57:25;;;;;;;10.40;1.90;;;13.70;98.70;;;;;;5028984;28;20120;-72
2021/09/30 14:59:51;;;;;;;7.05;1.73;;;13.70;98.70;;;;;;5046272;28;20056;-72
2021/09/30 15:02:17;;;;;;;5.75;1.75;;;13.60;98.50;;;;;;5044666;28;20041;-73
2021/09/30 15:04:43;;;;;;;5.93;1.63;;;13.60;98.40;;;;;;5044422;28;20330;-73
2021/09/30 15:07:08;;;;;;;10.50;2.72;;;13.60;98.50;;;;;;5030185;28;20240;-72
2021/09/30 15:09:35;;;;;;;7.80;1.60;;;13.70;98.20;;;;;;5045877;28;20048;-73
2021/09/30 15:12:04;;;;;;;8.93;2.17;;;13.70;98.00;;;;;;5027351;28;20051;-72
2021/09/30 15:14:29;;;;;;;6.75;1.70;;;13.60;97.70;;;;;;5045913;28;20041;-73
2021/09/30 15:17:03;;;;;;;7.78;2.03;;;13.60;97.80;;;;;;5044396;28;20041;-74
2021/09/30 15:19:36;;;;;;;7.25;1.83;;;13.60;98.00;;;;;;5043686;28;20172;-72
2021/09/30 15:22:05;;;;;;;4.60;1.30;;;13.60;97.30;;;;;;5027183;28;20049;-72
2021/09/30 15:24:30;;;;;;;6.90;1.75;;;13.60;97.30;;;;;;5043934;28;20414;-71
2021/09/30 15:26:56;;;;;;;9.32;2.10;;;13.50;97.60;;;;;;5027365;28;20139;-73
2021/09/30 15:29:22;;;;;;;5.43;1.55;;;13.50;97.60;;;;;;5044162;28;20094;-73
2021/09/30 15:31:48;;;;;;;7.28;1.92;;;13.50;97.90;;;;;;5045024;28;20043;-73
2021/09/30 15:34:15;;;;;;;6.88;1.85;;;13.50;97.60;;;;;;5063544;28;20040;-72
2021/09/30 15:36:42;;;;;;;6.47;1.65;;;13.50;97.40;;;;;;5013796;28;20080;-73
2021/09/30 15:39:09;;;;;;;6.32;1.52;;;13.40;97.60;;;;;;5024636;28;20083;-72
2021/09/30 15:41:37;;;;;;;4.07;1.23;;;13.40;97.90;;;;;;5041408;28;20503;-73
2021/09/30 15:44:03;;;;;;;6.70;1.73;;;13.30;97.10;;;;;;5038040;28;20415;-74
2021/09/30 15:46:30;;;;;;;5.93;1.33;;;13.30;96.80;;;;;;5028190;28;20087;-72
2021/09/30 15:48:56;;;;;;;5.47;1.40;;;13.30;96.60;;;;;;5046449;28;20044;-73
2021/09/30 15:51:22;;;;;;;6.03;1.45;;;13.20;96.80;;;;;;5027070;28;20404;-73
2021/09/30 15:53:48;;;;;;;7.55;1.67;;;13.30;96.80;;;;;;5027995;28;20047;-72
2021/09/30 15:56:14;;;;;;;6.53;2.85;;;13.20;96.80;;;;;;5044934;28;20059;-72
2021/09/30 15:58:40;;;;;;;4.97;1.48;;;13.20;96.90;;;;;;5028947;28;20491;-73
2021/09/30 16:01:06;;;;;;;6.53;1.60;;;13.20;96.90;;;;;;5026774;28;20037;-72